Time;durP1;ratioP1;P1;durP2;ratioP2;P2;SDS_P1;SDS_P2;PMS_P1;PMS_P2;Temp;Humidity;BMP_temperature;BMP_pressure;BME280_temperature;BME280_humidity;BME280_pressure;Samples;Min_cycle;Max_cycle;Signal;HPM_P1;HPM_P2
2022/05/01 00:03:31;;;;;;;;;;;11.20;99.90;;;;;;10244675;28;84574;-55
2022/05/01 00:08:31;;;;;;;;;;;11.20;99.90;;;;;;10244015;28;84240;-50
2022/05/01 00:13:32;;;;;;;;;;;11.10;99.90;;;;;;10227118;28;84951;-50
2022/05/01 00:18:32;;;;;;;;;;;11.00;99.90;;;;;;10243873;28;84831;-56
2022/05/01 00:23:33;;;;;;;;;;;11.00;99.90;;;;;;10226655;28;84170;-51
2022/05/01 00:28:35;;;;;;;;;;;10.90;99.90;;;;;;10225608;28;84952;-53
2022/05/01 00:38:57;;;;;;;;;;;10.80;1.00;;;;;;10243363;28;84104;-53
2022/05/01 00:43:57;;;;;;;;;;;10.70;1.00;;;;;;10248548;28;84931;-49
2022/05/01 00:49:00;;;;;;;;;;;10.70;1.00;;;;;;10249994;28;85070;-49
2022/05/01 00:54:02;;;;;;;;;;;10.60;1.00;;;;;;10250578;28;84081;-49
2022/05/01 00:59:03;;;;;;;;;;;10.60;1.00;;;;;;10250038;28;84984;-52
2022/05/01 01:04:03;;;;;;;;;;;10.60;1.00;;;;;;10250422;28;84713;-53
2022/05/01 01:09:04;;;;;;;;;;;10.60;1.00;;;;;;10248797;28;84880;-49
2022/05/01 01:14:05;;;;;;;;;;;10.40;1.00;;;;;;10249476;28;84067;-52
2022/05/01 01:19:07;;;;;;;;;;;10.40;1.00;;;;;;10231896;28;84961;-53
2022/05/01 01:24:10;;;;;;;;;;;10.40;1.00;;;;;;10250256;28;84953;-49
2022/05/01 01:34:31;;;;;;;;;;;10.20;1.00;;;;;;10232064;28;87118;-48
2022/05/01 01:39:31;;;;;;;;;;;10.20;1.00;;;;;;10248891;28;85151;-50
2022/05/01 01:44:36;;;;;;;;;;;10.20;1.00;;;;;;10248561;28;85768;-49
2022/05/01 01:49:37;;;;;;;;;;;10.10;1.00;;;;;;10230241;28;86115;-51
2022/05/01 01:54:37;;;;;;;;;;;10.00;1.00;;;;;;10248143;28;84601;-51
2022/05/01 01:59:38;;;;;;;;;;;10.00;1.00;;;;;;10248547;28;84185;-52
2022/05/01 02:04:38;;;;;;;;;;;9.90;1.00;;;;;;10231460;28;87100;-52
2022/05/01 02:09:39;;;;;;;;;;;9.90;1.00;;;;;;10270719;22;84987;-51
2022/05/01 02:14:41;;;;;;;;;;;9.90;1.00;;;;;;10249024;28;84318;-51
2022/05/01 02:19:42;;;;;;;;;;;9.90;1.00;;;;;;10288386;28;84975;-47
2022/05/01 02:24:43;;;;;;;;;;;9.90;1.00;;;;;;10266969;28;84818;-46
2022/05/01 02:29:44;;;;;;;;;;;10.00;1.00;;;;;;10246947;28;84662;-47
2022/05/01 02:34:45;;;;;;;;;;;10.00;1.00;;;;;;10246455;28;85025;-46
2022/05/01 02:39:46;;;;;;;;;;;10.10;1.00;;;;;;10247035;28;85128;-51
2022/05/01 02:44:46;;;;;;;;;;;10.10;1.00;;;;;;10230020;28;85377;-51
2022/05/01 02:49:47;;;;;;;;;;;10.10;1.00;;;;;;10246424;28;84025;-46
2022/05/01 02:54:47;;;;;;;;;;;10.10;1.00;;;;;;10263783;28;84766;-46
2022/05/01 02:59:48;;;;;;;;;;;10.00;1.00;;;;;;10260037;28;84349;-47
2022/05/01 03:04:48;;;;;;;;;;;10.00;1.00;;;;;;10262824;28;86211;-46
2022/05/01 03:09:49;;;;;;;;;;;10.00;1.00;;;;;;10286264;28;84793;-46
2022/05/01 03:14:50;;;;;;;;;;;10.00;1.00;;;;;;10269837;28;84089;-50
2022/05/01 03:25:09;;;;;;;;;;;9.80;1.00;;;;;;10207302;28;84763;-46
2022/05/01 03:30:16;;;;;;;;;;;9.70;1.00;;;;;;10205606;28;84888;-47
2022/05/01 03:35:17;;;;;;;;;;;9.60;1.00;;;;;;10247305;28;84823;-48
2022/05/01 03:40:18;;;;;;;;;;;9.60;1.00;;;;;;10292820;28;84031;-50
2022/05/01 03:45:18;;;;;;;;;;;9.60;1.00;;;;;;10273541;28;84089;-47
2022/05/01 03:50:19;;;;;;;;;;;9.60;1.00;;;;;;10213766;28;86872;-47
2022/05/01 03:55:20;;;;;;;;;;;9.60;1.00;;;;;;10266004;28;84921;-50
2022/05/01 04:00:21;;;;;;;;;;;9.60;1.00;;;;;;10268035;28;85148;-47
2022/05/01 04:05:21;;;;;;;;;;;9.60;1.00;;;;;;10265772;28;85664;-44
2022/05/01 04:10:22;;;;;;;;;;;9.50;1.00;;;;;;10244633;28;84580;-46
2022/05/01 04:15:23;;;;;;;;;;;9.50;1.00;;;;;;10247913;28;86383;-46
2022/05/01 04:20:23;;;;;;;;;;;9.50;1.00;;;;;;10242165;28;85881;-47
2022/05/01 04:25:25;;;;;;;;;;;9.40;1.00;;;;;;10250241;28;85228;-44
2022/05/01 04:30:31;;;;;;;;;;;9.30;1.00;;;;;;10252853;28;84028;-51
2022/05/01 04:35:33;;;;;;;;;;;9.40;1.00;;;;;;10252338;28;84835;-48
2022/05/01 04:40:38;;;;;;;;;;;9.40;1.00;;;;;;10253175;28;84128;-47
2022/05/01 04:45:40;;;;;;;;;;;9.40;1.00;;;;;;10268905;28;84900;-47
2022/05/01 04:50:41;;;;;;;;;;;9.50;1.00;;;;;;10252485;28;84098;-49
2022/05/01 04:55:43;;;;;;;;;;;9.50;1.00;;;;;;10247689;28;85211;-50
2022/05/01 05:00:44;;;;;;;;;;;9.50;1.00;;;;;;10251211;28;84181;-50
2022/05/01 05:05:45;;;;;;;;;;;9.60;1.00;;;;;;10267522;28;84892;-49
2022/05/01 05:10:46;;;;;;;;;;;9.60;1.00;;;;;;10251479;28;85193;-50
2022/05/01 05:15:47;;;;;;;;;;;9.60;1.00;;;;;;10250462;28;84115;-46
2022/05/01 05:20:48;;;;;;;;;;;9.60;1.00;;;;;;10250204;28;84268;-50
2022/05/01 05:25:48;;;;;;;;;;;9.60;1.00;;;;;;10250460;28;84102;-48
2022/05/01 05:30:49;;;;;;;;;;;9.60;1.00;;;;;;10249615;28;85047;-47
2022/05/01 05:35:49;;;;;;;;;;;9.80;1.00;;;;;;10247585;28;84811;-46
2022/05/01 05:40:50;;;;;;;;;;;9.90;1.00;;;;;;10232132;28;84889;-49
2022/05/01 05:45:51;;;;;;;;;;;9.80;1.00;;;;;;10264019;28;84928;-47
2022/05/01 05:50:51;;;;;;;;;;;9.80;1.00;;;;;;10265370;28;84470;-48
2022/05/01 05:55:52;;;;;;;;;;;9.90;1.00;;;;;;10265228;28;84308;-51
2022/05/01 06:00:52;;;;;;;;;;;10.00;1.00;;;;;;10249814;28;84923;-49
2022/05/01 06:05:53;;;;;;;;;;;9.90;1.00;;;;;;10240293;28;85065;-49
2022/05/01 06:10:53;;;;;;;;;;;10.00;1.00;;;;;;10226049;28;84278;-48
2022/05/01 06:15:54;;;;;;;;;;;10.10;1.00;;;;;;10245890;28;85032;-51
2022/05/01 06:20:54;;;;;;;;;;;10.00;1.00;;;;;;10246953;28;84916;-47
2022/05/01 06:25:55;;;;;;;;;;;10.10;1.00;;;;;;10232503;28;86008;-48
2022/05/01 06:30:57;;;;;;;;;;;10.30;1.00;;;;;;10242959;28;84344;-46
2022/05/01 06:35:58;;;;;;;;;;;10.30;1.00;;;;;;10227509;28;84333;-50
2022/05/01 06:41:00;;;;;;;;;;;10.50;1.00;;;;;;10244214;28;84307;-48
2022/05/01 06:46:01;;;;;;;;;;;10.60;1.00;;;;;;10248003;28;84297;-48
2022/05/01 06:51:01;;;;;;;;;;;10.90;1.00;;;;;;10245856;28;84869;-47
2022/05/01 06:56:02;;;;;;;;;;;11.10;1.00;;;;;;10246915;28;84495;-47
2022/05/01 07:01:03;;;;;;;;;;;11.20;1.00;;;;;;10245065;28;85160;-46
2022/05/01 07:06:03;;;;;;;;;;;11.40;1.00;;;;;;10244806;28;84108;-48
2022/05/01 07:11:04;;;;;;;;;;;11.40;1.00;;;;;;10244471;28;84919;-51
2022/05/01 07:16:05;;;;;;;;;;;11.40;1.00;;;;;;10244727;28;84320;-49
2022/05/01 07:21:06;;;;;;;;;;;11.80;1.00;;;;;;10244536;28;84896;-51
2022/05/01 07:26:06;;;;;;;;;;;12.00;1.00;;;;;;10227888;28;86073;-51
2022/05/01 07:31:07;;;;;;;;;;;12.10;1.00;;;;;;10245316;28;84988;-46
2022/05/01 07:36:07;;;;;;;;;;;12.10;1.00;;;;;;10245127;28;84124;-47
2022/05/01 07:41:08;;;;;;;;;;;12.40;1.00;;;;;;10243715;28;85177;-47
2022/05/01 07:46:09;;;;;;;;;;;12.70;1.00;;;;;;10238423;28;84355;-47
2022/05/01 07:51:09;;;;;;;;;;;12.70;1.00;;;;;;10237837;28;85009;-48
2022/05/01 07:56:10;;;;;;;;;;;12.90;1.00;;;;;;10245598;28;90361;-50
2022/05/01 08:01:10;;;;;;;;;;;13.20;1.00;;;;;;10243414;28;84172;-50
2022/05/01 08:06:12;;;;;;;;;;;13.50;99.90;;;;;;10245350;28;84218;-49
2022/05/01 08:11:13;;;;;;;;;;;13.80;99.90;;;;;;10263547;22;85549;-48
2022/05/01 08:16:14;;;;;;;;;;;13.80;99.90;;;;;;10228724;28;84082;-48
2022/05/01 08:21:16;;;;;;;;;;;13.80;99.90;;;;;;10221137;28;84233;-49
2022/05/01 08:26:21;;;;;;;;;;;13.90;57.40;;;;;;10183965;28;87005;-48
2022/05/01 08:31:21;;;;;;;;;;;14.00;18.80;;;;;;10207252;28;84452;-58
2022/05/01 08:36:22;;;;;;;;;;;14.50;1.00;;;;;;10184596;28;85883;-62
2022/05/01 08:41:24;;;;;;;;;;;14.90;1.00;;;;;;10210093;28;84485;-61
2022/05/01 08:46:24;;;;;;;;;;;15.30;1.00;;;;;;10194935;28;84972;-59
2022/05/01 08:51:26;;;;;;;;;;;15.40;99.90;;;;;;10198907;28;84129;-63
2022/05/01 08:56:27;;;;;;;;;;;15.30;99.90;;;;;;10179187;28;85107;-67
2022/05/01 09:01:29;;;;;;;;;;;15.60;99.90;;;;;;10179806;28;84285;-66
2022/05/01 09:06:30;;;;;;;;;;;15.80;1.00;;;;;;10164270;28;86659;-65
2022/05/01 09:17:09;;;;;;;;;;;16.10;1.00;;;;;;10204490;28;84292;-65
2022/05/01 09:22:11;;;;;;;;;;;16.00;99.90;;;;;;10185526;28;86111;-61
2022/05/01 09:27:27;;;;;;;;;;;15.80;1.00;;;;;;10187166;28;84539;-49
2022/05/01 09:32:38;;;;;;;;;;;15.70;99.90;;;;;;10209748;28;84610;-48
2022/05/01 09:37:39;;;;;;;;;;;15.60;1.00;;;;;;10200075;28;84150;-58
2022/05/01 09:42:39;;;;;;;;;;;15.70;99.90;;;;;;10195886;28;84276;-46
2022/05/01 09:47:46;;;;;;;;;;;15.70;99.90;;;;;;10203929;28;103110;-48
2022/05/01 09:52:53;;;;;;;;;;;15.70;99.90;;;;;;10192349;28;84370;-50
2022/05/01 09:58:03;;;;;;;;;;;15.50;99.90;;;;;;10163944;28;84004;-48
2022/05/01 10:03:19;;;;;;;;;;;15.30;99.90;;;;;;10177155;28;84948;-47
2022/05/01 10:08:20;;;;;;;;;;;15.30;1.00;;;;;;10217360;28;84120;-45
2022/05/01 10:13:22;;;;;;;;;;;15.20;99.90;;;;;;10185257;28;86790;-49
2022/05/01 10:18:24;;;;;;;;;;;15.30;99.90;;;;;;10209928;28;85214;-49
2022/05/01 10:23:25;;;;;;;;;;;15.20;1.00;;;;;;10198055;28;86236;-45
2022/05/01 10:29:00;;;;;;;;;;;15.00;1.00;;;;;;10209336;28;85030;-46
2022/05/01 10:34:28;;;;;;;;;;;15.10;43.60;;;;;;10188769;28;114197;-46
2022/05/01 10:39:33;;;;;;;;;;;15.40;1.00;;;;;;10209207;28;86069;-47
2022/05/01 10:44:40;;;;;;;;;;;15.50;1.00;;;;;;10212194;28;85227;-46
2022/05/01 10:49:42;;;;;;;;;;;15.40;1.00;;;;;;10169571;28;84129;-47
2022/05/01 10:55:04;;;;;;;;;;;15.40;99.90;;;;;;10184251;28;84793;-47
2022/05/01 11:00:06;;;;;;;;;;;15.30;99.90;;;;;;10214779;28;84488;-46
2022/05/01 11:05:08;;;;;;;;;;;15.30;21.30;;;;;;10230729;28;84797;-46
2022/05/01 11:10:10;;;;;;;;;;;15.30;99.90;;;;;;10164107;28;84332;-46
2022/05/01 11:15:11;;;;;;;;;;;15.40;99.90;;;;;;10168017;28;84933;-47
2022/05/01 11:20:14;;;;;;;;;;;15.20;99.90;;;;;;10190962;28;85232;-46
2022/05/01 11:25:18;;;;;;;;;;;15.20;99.90;;;;;;10207202;28;85005;-45
2022/05/01 11:30:27;;;;;;;;;;;15.20;74.30;;;;;;10181510;28;84826;-46
2022/05/01 11:35:46;;;;;;;;;;;15.30;99.90;;;;;;10167308;28;84035;-45
2022/05/01 11:40:57;;;;;;;;;;;15.10;99.90;;;;;;10196011;28;84954;-47
2022/05/01 11:45:58;;;;;;;;;;;15.00;99.90;;;;;;10207370;28;84839;-48
2022/05/01 11:50:59;;;;;;;;;;;15.00;99.90;;;;;;10177469;28;84945;-46
2022/05/01 12:06:39;;;;;;;;;;;15.40;1.00;;;;;;10207314;28;84910;-47
2022/05/01 12:11:39;;;;;;;;;;;15.20;1.00;;;;;;10171644;28;84788;-47
2022/05/01 12:16:40;;;;;;;;;;;15.70;1.00;;;;;;10167718;28;84350;-46
2022/05/01 12:21:41;;;;;;;;;;;16.70;99.90;;;;;;10186819;28;86156;-46
2022/05/01 12:26:49;;;;;;;;;;;18.40;1.00;;;;;;10205333;28;84043;-46
2022/05/01 12:31:53;;;;;;;;;;;18.80;1.00;;;;;;10206758;28;84937;-46
2022/05/01 12:36:56;;;;;;;;;;;19.30;1.00;;;;;;10176307;28;84830;-46
2022/05/01 12:47:33;;;;;;;;;;;19.90;99.90;;;;;;10205810;28;84601;-45
2022/05/01 12:52:35;;;;;;;;;;;20.30;99.90;;;;;;10213389;28;84858;-45
2022/05/01 12:57:36;;;;;;;;;;;20.60;1.00;;;;;;10177662;28;84829;-46
2022/05/01 13:02:37;;;;;;;;;;;20.20;1.00;;;;;;10173380;28;84227;-44
2022/05/01 13:07:38;;;;;;;;;;;19.50;1.00;;;;;;10208277;28;84939;-45
2022/05/01 13:12:38;;;;;;;;;;;19.30;1.00;;;;;;10196001;28;84116;-47
2022/05/01 13:17:39;;;;;;;;;;;19.20;1.00;;;;;;10159983;28;85005;-45
2022/05/01 13:22:40;;;;;;;;;;;18.90;1.00;;;;;;10172521;28;84995;-46
2022/05/01 13:27:40;;;;;;;;;;;18.40;1.00;;;;;;10207243;28;84974;-46
2022/05/01 13:32:41;;;;;;;;;;;18.30;1.00;;;;;;10178321;28;85108;-45
2022/05/01 13:37:41;;;;;;;;;;;18.30;1.00;;;;;;10175915;28;84179;-45
2022/05/01 13:48:01;;;;;;;;;;;18.00;1.00;;;;;;10208602;28;84147;-49
2022/05/01 13:53:02;;;;;;;;;;;17.90;1.00;;;;;;10211677;28;85163;-48
2022/05/01 13:58:03;;;;;;;;;;;17.90;1.00;;;;;;10172256;28;84027;-46
2022/05/01 14:03:07;;;;;;;;;;;17.90;1.00;;;;;;10172798;28;84883;-45
2022/05/01 14:13:32;;;;;;;;;;;17.50;1.00;;;;;;10209087;28;84609;-53
2022/05/01 14:18:33;;;;;;;;;;;17.20;1.00;;;;;;10210695;28;84136;-51
2022/05/01 14:23:39;;;;;;;;;;;17.00;1.00;;;;;;10210172;28;84716;-48
2022/05/01 14:28:39;;;;;;;;;;;17.00;1.00;;;;;;10208940;28;84990;-53
2022/05/01 14:33:44;;;;;;;;;;;17.10;1.00;;;;;;10210239;28;84973;-50
2022/05/01 14:38:47;;;;;;;;;;;17.10;1.00;;;;;;10209018;28;84104;-49
2022/05/01 14:43:48;;;;;;;;;;;17.10;1.00;;;;;;10208135;28;85863;-52
2022/05/01 14:48:55;;;;;;;;;;;16.90;1.00;;;;;;10209066;28;84031;-54
2022/05/01 14:53:56;;;;;;;;;;;16.80;1.00;;;;;;10210176;28;84071;-51
2022/05/01 15:09:38;;;;;;;;;;;16.50;1.00;;;;;;10208604;28;84050;-51
2022/05/01 15:14:40;;;;;;;;;;;16.50;1.00;;;;;;10209580;28;84923;-52
2022/05/01 15:19:43;;;;;;;;;;;16.40;1.00;;;;;;10208413;28;85062;-50
2022/05/01 15:24:51;;;;;;;;;;;16.50;1.00;;;;;;10208295;28;84568;-51
2022/05/01 15:29:51;;;;;;;;;;;16.20;1.00;;;;;;10207623;28;84243;-51
2022/05/01 15:34:57;;;;;;;;;;;16.20;1.00;;;;;;10209585;28;84178;-50
2022/05/01 15:40:01;;;;;;;;;;;16.20;1.00;;;;;;10205769;28;85432;-51
2022/05/01 15:45:03;;;;;;;;;;;16.10;1.00;;;;;;10208288;28;84124;-50
2022/05/01 15:55:28;;;;;;;;;;;16.10;99.90;;;;;;10208554;28;84950;-50
2022/05/01 16:00:30;;;;;;;;;;;16.00;99.90;;;;;;10208100;28;85038;-50
2022/05/01 16:05:30;;;;;;;;;;;15.90;99.90;;;;;;10206953;28;84095;-53
2022/05/01 16:10:38;;;;;;;;;;;16.00;99.90;;;;;;10207729;28;84245;-52
2022/05/01 16:15:41;;;;;;;;;;;16.10;99.90;;;;;;10206044;28;84399;-51
2022/05/01 16:20:47;;;;;;;;;;;16.00;99.90;;;;;;10208261;28;84801;-53
2022/05/01 16:25:49;;;;;;;;;;;16.00;99.90;;;;;;10206323;28;84975;-51
2022/05/01 16:30:53;;;;;;;;;;;16.00;99.90;;;;;;10208134;28;84881;-52
2022/05/01 16:35:58;;;;;;;;;;;15.90;99.90;;;;;;10207139;28;84317;-53
2022/05/01 16:40:59;;;;;;;;;;;15.80;99.90;;;;;;10207252;28;85785;-52
2022/05/01 16:46:00;;;;;;;;;;;15.70;1.00;;;;;;10205857;28;84938;-54
2022/05/01 16:51:01;;;;;;;;;;;15.80;1.00;;;;;;10207356;28;84401;-53
2022/05/01 16:56:02;;;;;;;;;;;15.80;99.90;;;;;;10206111;28;84717;-50
2022/05/01 17:01:15;;;;;;;;;;;15.60;1.00;;;;;;10205229;28;84190;-52
2022/05/01 17:06:28;;;;;;;;;;;15.70;1.00;;;;;;10206589;28;84169;-52
2022/05/01 17:11:47;;;;;;;;;;;15.60;1.00;;;;;;10207267;28;85160;-49
2022/05/01 17:16:47;;;;;;;;;;;15.40;1.00;;;;;;10165970;28;84198;-49
2022/05/01 17:21:48;;;;;;;;;;;15.30;1.00;;;;;;10166464;28;84962;-54
2022/05/01 17:26:49;;;;;;;;;;;15.20;1.00;;;;;;10171910;28;84053;-54
2022/05/01 17:31:59;;;;;;;;;;;15.20;1.00;;;;;;10201047;28;84893;-51
2022/05/01 17:37:00;;;;;;;;;;;15.10;1.00;;;;;;10194651;28;84147;-50
2022/05/01 17:42:04;;;;;;;;;;;15.10;1.00;;;;;;10210593;28;84391;-52
2022/05/01 17:47:05;;;;;;;;;;;15.00;1.00;;;;;;10211455;28;84220;-52
2022/05/01 17:52:06;;;;;;;;;;;14.80;1.00;;;;;;10211614;28;84168;-50
2022/05/01 17:57:07;;;;;;;;;;;14.90;1.00;;;;;;10211589;28;84163;-54
2022/05/01 18:02:28;;;;;;;;;;;14.80;1.00;;;;;;10211396;28;84039;-53
2022/05/01 18:13:23;;;;;;;;;;;14.70;1.00;;;;;;10171678;28;85067;-50
2022/05/01 18:18:33;;;;;;;;;;;14.60;99.90;;;;;;10169802;28;84286;-49
2022/05/01 18:23:42;;;;;;;;;;;14.50;99.90;;;;;;10209448;28;84300;-52
2022/05/01 18:34:36;;;;;;;;;;;14.30;1.00;;;;;;10169812;28;84076;-53
2022/05/01 18:39:47;;;;;;;;;;;14.30;1.00;;;;;;10182424;28;84697;-51
2022/05/01 18:44:49;;;;;;;;;;;14.30;99.90;;;;;;10209843;28;84328;-52
2022/05/01 18:49:50;;;;;;;;;;;14.30;1.00;;;;;;10185907;28;84393;-51
2022/05/01 18:54:53;;;;;;;;;;;14.20;52.60;;;;;;10207058;28;90484;-50
2022/05/01 18:59:54;;;;;;;;;;;14.20;99.90;;;;;;10192665;28;84162;-53
2022/05/01 19:04:55;;;;;;;;;;;14.20;1.00;;;;;;10163201;28;87059;-52
2022/05/01 19:10:14;;;;;;;;;;;14.10;1.00;;;;;;10189167;28;84424;-48
2022/05/01 19:15:31;;;;;;;;;;;14.10;99.90;;;;;;10204248;28;85383;-57
2022/05/01 19:20:40;;;;;;;;;;;14.00;99.90;;;;;;10192960;28;85567;-49
2022/05/01 19:31:16;;;;;;;;;;;13.80;99.90;;;;;;10206128;28;84607;-54
2022/05/01 19:36:28;;;;;;;;;;;13.70;1.00;;;;;;10207349;28;84935;-50
2022/05/01 19:41:49;;;;;;;;;;;13.70;1.00;;;;;;10207217;28;84178;-49
2022/05/01 19:52:37;;;;;;;;;;;13.50;1.00;;;;;;10208055;28;84287;-51
2022/05/01 19:57:39;;;;;;;;;;;13.50;1.00;;;;;;10204672;28;84078;-56
2022/05/01 20:02:40;;;;;;;;;;;13.40;1.00;;;;;;10199512;28;85005;-53
2022/05/01 20:07:41;;;;;;;;;;;13.30;50.10;;;;;;10197938;28;84909;-53
2022/05/01 20:12:41;;;;;;;;;;;13.30;99.90;;;;;;10246168;23;84868;-46
2022/05/01 20:17:44;;;;;;;;;;;13.20;99.90;;;;;;10233244;28;84833;-46
2022/05/01 20:22:49;;;;;;;;;;;13.20;99.90;;;;;;10213982;28;84235;-46
2022/05/01 20:28:08;;;;;;;;;;;13.20;99.90;;;;;;10214834;28;84940;-49
2022/05/01 20:33:09;;;;;;;;;;;13.20;1.00;;;;;;10204593;28;84134;-47
2022/05/01 20:38:21;;;;;;;;;;;13.20;1.00;;;;;;10203725;28;85054;-47
2022/05/01 20:43:40;;;;;;;;;;;13.20;1.00;;;;;;10210337;28;84260;-49
2022/05/01 20:48:54;;;;;;;;;;;13.10;1.00;;;;;;10202237;28;85979;-50
2022/05/01 20:53:55;;;;;;;;;;;13.00;1.00;;;;;;10204919;28;84999;-46
2022/05/01 20:58:57;;;;;;;;;;;13.00;1.00;;;;;;10209827;28;84693;-47
2022/05/01 21:03:58;;;;;;;;;;;12.90;1.00;;;;;;10211275;28;84922;-44
2022/05/01 21:08:58;;;;;;;;;;;12.80;1.00;;;;;;10209430;28;84140;-46
2022/05/01 21:13:59;;;;;;;;;;;12.80;1.00;;;;;;10231744;28;84692;-47
2022/05/01 21:19:01;;;;;;;;;;;12.70;1.00;;;;;;10249512;28;84272;-47
2022/05/01 21:24:02;;;;;;;;;;;12.60;1.00;;;;;;10249825;28;84973;-47
2022/05/01 21:34:22;;;;;;;;;;;12.50;1.00;;;;;;10248883;28;86032;-47
2022/05/01 21:39:23;;;;;;;;;;;12.50;17.90;;;;;;10249451;28;84140;-47
2022/05/01 21:44:23;;;;;;;;;;;12.50;45.90;;;;;;10248965;28;86741;-51
2022/05/01 21:49:24;;;;;;;;;;;12.40;99.90;;;;;;10245844;28;95904;-50
2022/05/01 21:54:24;;;;;;;;;;;12.30;99.90;;;;;;10248402;28;84939;-45
2022/05/01 21:59:25;;;;;;;;;;;12.30;99.90;;;;;;10246994;28;86573;-45
2022/05/01 22:04:26;;;;;;;;;;;12.30;99.90;;;;;;10224794;28;85308;-46
2022/05/01 22:09:27;;;;;;;;;;;12.20;99.90;;;;;;10206524;28;87184;-47
2022/05/01 22:14:28;;;;;;;;;;;12.10;99.90;;;;;;10208165;28;85430;-46
2022/05/01 22:19:29;;;;;;;;;;;12.00;99.90;;;;;;10243032;28;85002;-46
2022/05/01 22:24:29;;;;;;;;;;;11.90;99.90;;;;;;10242020;28;89998;-50
2022/05/01 22:29:31;;;;;;;;;;;11.80;99.90;;;;;;10205912;28;84883;-47
2022/05/01 22:34:31;;;;;;;;;;;11.70;99.90;;;;;;10207979;28;84107;-49
2022/05/01 22:39:32;;;;;;;;;;;11.70;99.90;;;;;;10207255;28;84563;-47
2022/05/01 22:44:33;;;;;;;;;;;11.50;1.00;;;;;;10208217;28;84856;-50
2022/05/01 22:49:34;;;;;;;;;;;11.50;1.00;;;;;;10204523;28;86823;-48
2022/05/01 22:54:34;;;;;;;;;;;11.40;1.00;;;;;;10207946;28;87089;-48
2022/05/01 22:59:35;;;;;;;;;;;11.20;1.00;;;;;;10234373;28;85104;-47
2022/05/01 23:04:36;;;;;;;;;;;11.10;1.00;;;;;;10211270;28;84566;-51
2022/05/01 23:09:36;;;;;;;;;;;11.10;1.00;;;;;;10207163;28;84246;-47
2022/05/01 23:14:37;;;;;;;;;;;11.00;1.00;;;;;;10222280;28;86712;-45
2022/05/01 23:19:38;;;;;;;;;;;10.90;1.00;;;;;;10228430;28;86095;-46
2022/05/01 23:24:38;;;;;;;;;;;10.90;1.00;;;;;;10246084;28;84183;-48
2022/05/01 23:34:58;;;;;;;;;;;10.70;1.00;;;;;;10244197;28;86977;-47
2022/05/01 23:39:58;;;;;;;;;;;10.60;1.00;;;;;;10244847;28;84855;-47
2022/05/01 23:44:59;;;;;;;;;;;10.60;1.00;;;;;;10245900;28;84051;-47
2022/05/01 23:49:59;;;;;;;;;;;10.60;1.00;;;;;;10243396;28;84492;-46
2022/05/01 23:55:00;;;;;;;;;;;10.50;1.00;;;;;;10245560;28;84873;-47
